sensor_id;sensor_type;location;lat;lon;timestamp;pressure;altitude;pressure_sealevel;temperature;humidity
10392;BME280;5242;49.244;6.774;2023-02-28T00:04:16;100446.72;;;-1.03;nan
10392;BME280;5242;49.244;6.774;2023-02-28T00:12:07;100447.44;;;-1.13;nan
10392;BME280;5242;49.244;6.774;2023-02-28T00:20:02;100446.03;;;-1.21;nan
10392;BME280;5242;49.244;6.774;2023-02-28T00:27:55;100454.50;;;-1.29;nan
10392;BME280;5242;49.244;6.774;2023-02-28T00:35:47;100449.34;;;-1.36;nan
10392;BME280;5242;49.244;6.774;2023-02-28T00:43:40;100455.47;;;-1.40;nan
10392;BME280;5242;49.244;6.774;2023-02-28T00:51:32;100458.09;;;-1.45;nan
10392;BME280;5242;49.244;6.774;2023-02-28T00:59:23;100448.97;;;-1.49;nan
10392;BME280;5242;49.244;6.774;2023-02-28T01:07:15;100450.78;;;-1.55;nan
10392;BME280;5242;49.244;6.774;2023-02-28T01:15:10;100456.63;;;-1.58;nan
10392;BME280;5242;49.244;6.774;2023-02-28T01:23:02;100453.06;;;-1.64;nan
10392;BME280;5242;49.244;6.774;2023-02-28T01:30:54;100461.28;;;-1.70;nan
10392;BME280;5242;49.244;6.774;2023-02-28T01:38:46;100464.94;;;-1.77;nan
10392;BME280;5242;49.244;6.774;2023-02-28T01:46:38;100464.63;;;-1.80;nan
10392;BME280;5242;49.244;6.774;2023-02-28T01:54:31;100463.03;;;-1.81;nan
10392;BME280;5242;49.244;6.774;2023-02-28T02:02:26;100458.16;;;-1.84;nan
10392;BME280;5242;49.244;6.774;2023-02-28T02:10:35;100456.25;;;-1.89;nan
10392;BME280;5242;49.244;6.774;2023-02-28T02:35:12;100437.69;;;-2.01;nan
10392;BME280;5242;49.244;6.774;2023-02-28T02:44:01;100432.78;;;-2.09;nan
10392;BME280;5242;49.244;6.774;2023-02-28T02:51:44;100429.47;;;-2.16;nan
10392;BME280;5242;49.244;6.774;2023-02-28T02:59:39;100437.41;;;-2.21;nan
10392;BME280;5242;49.244;6.774;2023-02-28T03:07:32;100429.34;;;-2.26;nan
10392;BME280;5242;49.244;6.774;2023-02-28T03:15:27;100417.06;;;-2.27;nan
10392;BME280;5242;49.244;6.774;2023-02-28T03:23:40;100418.03;;;-2.33;nan
10392;BME280;5242;49.244;6.774;2023-02-28T03:39:43;100417.97;;;-2.38;nan
10392;BME280;5242;49.244;6.774;2023-02-28T03:47:39;100420.63;;;-2.38;nan
10392;BME280;5242;49.244;6.774;2023-02-28T03:55:38;100421.69;;;-2.39;nan
10392;BME280;5242;49.244;6.774;2023-02-28T04:03:30;100426.47;;;-2.42;nan
10392;BME280;5242;49.244;6.774;2023-02-28T04:19:27;100427.44;;;-2.48;nan
10392;BME280;5242;49.244;6.774;2023-02-28T04:27:19;100436.97;;;-2.52;nan
10392;BME280;5242;49.244;6.774;2023-02-28T04:35:11;100431.34;;;-2.55;nan
10392;BME280;5242;49.244;6.774;2023-02-28T04:43:03;100429.06;;;-2.64;nan
10392;BME280;5242;49.244;6.774;2023-02-28T04:50:54;100420.25;;;-2.64;nan
10392;BME280;5242;49.244;6.774;2023-02-28T04:58:46;100432.00;;;-2.65;nan
10392;BME280;5242;49.244;6.774;2023-02-28T05:06:38;100423.41;;;-2.67;nan
10392;BME280;5242;49.244;6.774;2023-02-28T05:14:30;100425.50;;;-2.69;nan
10392;BME280;5242;49.244;6.774;2023-02-28T05:22:22;100436.19;;;-2.69;nan
10392;BME280;5242;49.244;6.774;2023-02-28T05:30:14;100432.94;;;-2.71;nan
10392;BME280;5242;49.244;6.774;2023-02-28T05:38:06;100444.09;;;-2.74;nan
10392;BME280;5242;49.244;6.774;2023-02-28T05:45:58;100443.31;;;-2.75;nan
10392;BME280;5242;49.244;6.774;2023-02-28T05:53:50;100447.84;;;-2.75;nan
10392;BME280;5242;49.244;6.774;2023-02-28T06:01:44;100445.75;;;-2.73;nan
10392;BME280;5242;49.244;6.774;2023-02-28T06:09:44;100451.06;;;-2.73;nan
10392;BME280;5242;49.244;6.774;2023-02-28T06:17:36;100444.69;;;-2.72;nan
10392;BME280;5242;49.244;6.774;2023-02-28T06:25:28;100463.44;;;-2.67;nan
10392;BME280;5242;49.244;6.774;2023-02-28T06:33:20;100466.25;;;-2.57;nan
10392;BME280;5242;49.244;6.774;2023-02-28T06:41:12;100469.16;;;-2.42;nan
10392;BME280;5242;49.244;6.774;2023-02-28T06:49:04;100483.56;;;-2.43;nan
10392;BME280;5242;49.244;6.774;2023-02-28T06:56:57;100485.31;;;-2.31;nan
10392;BME280;5242;49.244;6.774;2023-02-28T07:04:49;100488.41;;;-2.01;nan
10392;BME280;5242;49.244;6.774;2023-02-28T07:12:41;100495.56;;;-1.40;nan
10392;BME280;5242;49.244;6.774;2023-02-28T07:20:35;100489.59;;;-0.29;nan
10392;BME280;5242;49.244;6.774;2023-02-28T07:28:27;100492.50;;;0.91;nan
10392;BME280;5242;49.244;6.774;2023-02-28T07:36:19;100492.56;;;3.02;nan
10392;BME280;5242;49.244;6.774;2023-02-28T07:44:11;100485.91;;;4.11;nan
10392;BME280;5242;49.244;6.774;2023-02-28T07:52:05;100471.50;;;4.83;nan
10392;BME280;5242;49.244;6.774;2023-02-28T07:59:57;100471.22;;;5.69;nan
10392;BME280;5242;49.244;6.774;2023-02-28T08:07:49;100480.88;;;6.58;nan
10392;BME280;5242;49.244;6.774;2023-02-28T08:15:41;100473.81;;;6.85;nan
10392;BME280;5242;49.244;6.774;2023-02-28T08:23:34;100477.16;;;7.04;nan
10392;BME280;5242;49.244;6.774;2023-02-28T08:31:26;100472.56;;;7.27;nan
10392;BME280;5242;49.244;6.774;2023-02-28T08:39:19;100470.06;;;6.58;nan
10392;BME280;5242;49.244;6.774;2023-02-28T08:47:11;100471.59;;;5.49;nan
10392;BME280;5242;49.244;6.774;2023-02-28T08:55:03;100474.19;;;5.21;nan
10392;BME280;5242;49.244;6.774;2023-02-28T09:02:55;100465.22;;;5.72;nan
10392;BME280;5242;49.244;6.774;2023-02-28T09:10:46;100459.97;;;7.54;nan
10392;BME280;5242;49.244;6.774;2023-02-28T09:18:39;100462.97;;;7.75;nan
10392;BME280;5242;49.244;6.774;2023-02-28T09:26:31;100456.66;;;6.53;nan
10392;BME280;5242;49.244;6.774;2023-02-28T09:34:33;100447.81;;;7.51;nan
10392;BME280;5242;49.244;6.774;2023-02-28T09:42:32;100460.69;;;6.42;nan
10392;BME280;5242;49.244;6.774;2023-02-28T09:50:34;100458.94;;;5.30;nan
10392;BME280;5242;49.244;6.774;2023-02-28T09:58:49;100465.63;;;4.81;nan
10392;BME280;5242;49.244;6.774;2023-02-28T10:06:46;100459.38;;;5.51;nan
10392;BME280;5242;49.244;6.774;2023-02-28T10:14:45;100453.72;;;5.34;nan
10392;BME280;5242;49.244;6.774;2023-02-28T10:22:52;100447.41;;;5.06;nan
10392;BME280;5242;49.244;6.774;2023-02-28T10:30:49;100433.78;;;4.78;nan
10392;BME280;5242;49.244;6.774;2023-02-28T10:38:42;100453.75;;;4.39;nan
10392;BME280;5242;49.244;6.774;2023-02-28T10:46:34;100438.00;;;5.82;nan
10392;BME280;5242;49.244;6.774;2023-02-28T11:02:37;100435.28;;;7.33;nan
10392;BME280;5242;49.244;6.774;2023-02-28T11:10:34;100437.91;;;5.87;nan
10392;BME280;5242;49.244;6.774;2023-02-28T11:26:56;100409.94;;;5.51;nan
10392;BME280;5242;49.244;6.774;2023-02-28T11:35:14;100443.56;;;5.44;nan
10392;BME280;5242;49.244;6.774;2023-02-28T11:43:19;100433.69;;;6.50;nan
10392;BME280;5242;49.244;6.774;2023-02-28T11:51:24;100419.41;;;6.22;nan
10392;BME280;5242;49.244;6.774;2023-02-28T11:59:42;100425.91;;;5.33;nan
10392;BME280;5242;49.244;6.774;2023-02-28T12:16:04;100420.13;;;3.88;nan
10392;BME280;5242;49.244;6.774;2023-02-28T12:24:07;100419.44;;;3.78;nan
10392;BME280;5242;49.244;6.774;2023-02-28T12:32:33;100420.13;;;3.64;nan
10392;BME280;5242;49.244;6.774;2023-02-28T12:40:41;100405.44;;;3.76;nan
10392;BME280;5242;49.244;6.774;2023-02-28T12:48:40;100416.56;;;3.93;nan
10392;BME280;5242;49.244;6.774;2023-02-28T12:56:47;100400.06;;;4.00;nan
10392;BME280;5242;49.244;6.774;2023-02-28T13:12:51;100382.63;;;3.92;nan
10392;BME280;5242;49.244;6.774;2023-02-28T13:20:47;100398.94;;;3.82;nan
10392;BME280;5242;49.244;6.774;2023-02-28T13:36:45;100398.34;;;3.85;nan
10392;BME280;5242;49.244;6.774;2023-02-28T14:09:33;100374.66;;;5.14;nan
10392;BME280;5242;49.244;6.774;2023-02-28T14:17:27;100376.97;;;4.88;nan
10392;BME280;5242;49.244;6.774;2023-02-28T14:25:30;100375.25;;;4.60;nan
10392;BME280;5242;49.244;6.774;2023-02-28T14:33:33;100368.41;;;4.48;nan
10392;BME280;5242;49.244;6.774;2023-02-28T14:41:34;100362.44;;;4.51;nan
10392;BME280;5242;49.244;6.774;2023-02-28T14:49:31;100375.84;;;4.56;nan
10392;BME280;5242;49.244;6.774;2023-02-28T15:05:30;100358.06;;;4.18;nan
10392;BME280;5242;49.244;6.774;2023-02-28T15:13:23;100363.78;;;4.11;nan
10392;BME280;5242;49.244;6.774;2023-02-28T15:21:22;100365.69;;;4.10;nan
10392;BME280;5242;49.244;6.774;2023-02-28T15:29:18;100357.22;;;3.98;nan
10392;BME280;5242;49.244;6.774;2023-02-28T15:45:29;100372.78;;;3.82;nan
10392;BME280;5242;49.244;6.774;2023-02-28T15:53:30;100378.00;;;3.74;nan
10392;BME280;5242;49.244;6.774;2023-02-28T16:01:28;100388.84;;;3.68;nan
10392;BME280;5242;49.244;6.774;2023-02-28T16:09:23;100377.75;;;3.70;nan
10392;BME280;5242;49.244;6.774;2023-02-28T16:17:26;100389.69;;;3.64;nan
10392;BME280;5242;49.244;6.774;2023-02-28T16:25:28;100391.91;;;3.57;nan
10392;BME280;5242;49.244;6.774;2023-02-28T16:33:23;100398.72;;;3.49;nan
10392;BME280;5242;49.244;6.774;2023-02-28T16:41:18;100405.38;;;3.33;nan
10392;BME280;5242;49.244;6.774;2023-02-28T16:49:11;100412.97;;;3.25;nan
10392;BME280;5242;49.244;6.774;2023-02-28T16:57:05;100410.06;;;3.17;nan
10392;BME280;5242;49.244;6.774;2023-02-28T17:04:57;100438.94;;;3.06;nan
10392;BME280;5242;49.244;6.774;2023-02-28T17:12:49;100446.84;;;2.97;nan
10392;BME280;5242;49.244;6.774;2023-02-28T17:20:41;100448.72;;;2.97;nan
10392;BME280;5242;49.244;6.774;2023-02-28T17:28:33;100471.19;;;2.77;nan
10392;BME280;5242;49.244;6.774;2023-02-28T17:36:26;100482.56;;;2.64;nan
10392;BME280;5242;49.244;6.774;2023-02-28T17:44:20;100492.00;;;2.56;nan
10392;BME280;5242;49.244;6.774;2023-02-28T17:52:11;100506.56;;;2.45;nan
10392;BME280;5242;49.244;6.774;2023-02-28T18:00:04;100509.84;;;2.36;nan
10392;BME280;5242;49.244;6.774;2023-02-28T18:07:58;100509.31;;;2.29;nan
10392;BME280;5242;49.244;6.774;2023-02-28T18:15:50;100507.72;;;2.23;nan
10392;BME280;5242;49.244;6.774;2023-02-28T18:23:42;100508.53;;;2.18;nan
10392;BME280;5242;49.244;6.774;2023-02-28T18:31:40;100500.78;;;2.07;nan
10392;BME280;5242;49.244;6.774;2023-02-28T18:39:32;100506.16;;;1.96;nan
10392;BME280;5242;49.244;6.774;2023-02-28T18:47:24;100516.41;;;1.89;nan
10392;BME280;5242;49.244;6.774;2023-02-28T18:55:17;100514.81;;;1.83;nan
10392;BME280;5242;49.244;6.774;2023-02-28T19:03:10;100515.34;;;1.75;nan
10392;BME280;5242;49.244;6.774;2023-02-28T19:11:14;100514.03;;;1.67;nan
10392;BME280;5242;49.244;6.774;2023-02-28T19:19:06;100522.09;;;1.47;nan
10392;BME280;5242;49.244;6.774;2023-02-28T19:26:58;100525.31;;;1.34;nan
10392;BME280;5242;49.244;6.774;2023-02-28T19:34:50;100527.97;;;1.18;nan
10392;BME280;5242;49.244;6.774;2023-02-28T19:42:42;100522.84;;;1.06;nan
10392;BME280;5242;49.244;6.774;2023-02-28T19:50:33;100526.06;;;0.98;nan
10392;BME280;5242;49.244;6.774;2023-02-28T19:58:27;100531.91;;;0.80;nan
10392;BME280;5242;49.244;6.774;2023-02-28T20:06:19;100528.59;;;0.52;nan
10392;BME280;5242;49.244;6.774;2023-02-28T20:14:11;100528.47;;;0.21;nan
10392;BME280;5242;49.244;6.774;2023-02-28T20:22:08;100524.19;;;0.20;nan
10392;BME280;5242;49.244;6.774;2023-02-28T20:30:01;100519.38;;;0.28;nan
10392;BME280;5242;49.244;6.774;2023-02-28T20:37:52;100523.94;;;0.32;nan
10392;BME280;5242;49.244;6.774;2023-02-28T20:45:54;100526.38;;;0.34;nan
10392;BME280;5242;49.244;6.774;2023-02-28T20:53:48;100521.00;;;0.29;nan
10392;BME280;5242;49.244;6.774;2023-02-28T21:01:40;100519.09;;;0.24;nan
10392;BME280;5242;49.244;6.774;2023-02-28T21:09:35;100512.91;;;0.18;nan
10392;BME280;5242;49.244;6.774;2023-02-28T21:17:27;100517.94;;;0.10;nan
10392;BME280;5242;49.244;6.774;2023-02-28T21:25:19;100513.84;;;-0.03;nan
10392;BME280;5242;49.244;6.774;2023-02-28T21:33:11;100509.53;;;-0.09;nan
10392;BME280;5242;49.244;6.774;2023-02-28T21:48:56;100508.22;;;-0.44;nan
10392;BME280;5242;49.244;6.774;2023-02-28T21:56:48;100502.25;;;-0.51;nan
10392;BME280;5242;49.244;6.774;2023-02-28T22:04:43;100500.69;;;-0.47;nan
10392;BME280;5242;49.244;6.774;2023-02-28T22:12:35;100489.81;;;-0.35;nan
10392;BME280;5242;49.244;6.774;2023-02-28T22:20:26;100495.72;;;-0.28;nan
10392;BME280;5242;49.244;6.774;2023-02-28T22:28:19;100497.41;;;-0.22;nan
10392;BME280;5242;49.244;6.774;2023-02-28T22:36:13;100498.16;;;-0.27;nan
10392;BME280;5242;49.244;6.774;2023-02-28T22:44:06;100497.59;;;-0.29;nan
10392;BME280;5242;49.244;6.774;2023-02-28T22:51:58;100493.81;;;-0.38;nan
10392;BME280;5242;49.244;6.774;2023-02-28T22:59:49;100501.84;;;-0.38;nan
10392;BME280;5242;49.244;6.774;2023-02-28T23:07:41;100492.22;;;-0.34;nan
10392;BME280;5242;49.244;6.774;2023-02-28T23:15:33;100489.81;;;-0.35;nan
10392;BME280;5242;49.244;6.774;2023-02-28T23:23:25;100485.50;;;-0.36;nan
10392;BME280;5242;49.244;6.774;2023-02-28T23:31:17;100499.22;;;-0.33;nan
10392;BME280;5242;49.244;6.774;2023-02-28T23:39:09;100500.78;;;-0.37;nan
10392;BME280;5242;49.244;6.774;2023-02-28T23:47:01;100507.47;;;-0.34;nan
10392;BME280;5242;49.244;6.774;2023-02-28T23:54:53;100508.81;;;-0.37;nan
